Time;durP1;ratioP1;P1;durP2;ratioP2;P2;SDS_P1;SDS_P2;PMS_P1;PMS_P2;Temp;Humidity;BMP_temperature;BMP_pressure;BME280_temperature;BME280_humidity;BME280_pressure;Samples;Min_cycle;Max_cycle;Signal;HPM_P1;HPM_P2
2021/03/19 00:02:16;;;;;;;23.73;17.15;;;3.50;99.90;;;;;;5073988;28;20280;-88
2021/03/19 00:04:42;;;;;;;18.60;14.65;;;3.50;99.90;;;;;;5073925;28;20288;-88
2021/03/19 00:07:08;;;;;;;13.63;10.15;;;3.40;99.90;;;;;;5074319;28;20205;-87
2021/03/19 00:09:35;;;;;;;14.80;9.82;;;3.40;99.90;;;;;;5073833;28;20209;-88
2021/03/19 00:12:02;;;;;;;13.02;9.55;;;3.40;99.90;;;;;;5073643;28;20225;-87
2021/03/19 00:14:28;;;;;;;12.77;9.25;;;3.40;99.90;;;;;;5074049;28;20288;-89
2021/03/19 00:16:54;;;;;;;16.48;12.40;;;3.30;99.90;;;;;;5087810;28;20582;-89
2021/03/19 00:19:22;;;;;;;64.25;29.65;;;3.30;99.90;;;;;;5087759;28;20246;-90
2021/03/19 00:21:48;;;;;;;22.40;13.38;;;3.40;99.90;;;;;;5075700;28;20673;-88
2021/03/19 00:24:14;;;;;;;45.08;20.42;;;3.50;99.90;;;;;;5074665;28;20300;-86
2021/03/19 00:26:42;;;;;;;23.40;15.80;;;3.40;99.90;;;;;;5074721;28;20300;-88
2021/03/19 00:29:09;;;;;;;13.27;10.50;;;3.20;99.90;;;;;;5074332;28;20719;-87
2021/03/19 00:31:35;;;;;;;16.48;10.52;;;3.10;99.90;;;;;;5074310;28;20233;-87
2021/03/19 00:34:02;;;;;;;15.30;9.95;;;3.10;99.90;;;;;;5071816;28;20205;-86
2021/03/19 00:36:30;;;;;;;13.35;10.50;;;3.10;99.90;;;;;;5074010;28;20288;-88
2021/03/19 00:38:57;;;;;;;12.25;10.40;;;3.00;99.90;;;;;;5031802;28;20656;-88
2021/03/19 00:41:25;;;;;;;16.35;10.70;;;3.00;99.90;;;;;;5029035;28;20767;-88
2021/03/19 00:43:52;;;;;;;14.00;8.50;;;3.00;99.90;;;;;;5031139;28;20210;-88
2021/03/19 00:46:19;;;;;;;15.82;11.05;;;3.00;99.90;;;;;;5028766;28;20329;-88
2021/03/19 00:48:45;;;;;;;15.00;10.00;;;2.90;99.90;;;;;;5031405;28;20302;-86
2021/03/19 00:51:13;;;;;;;12.57;9.60;;;2.80;99.90;;;;;;5025739;28;20276;-86
2021/03/19 00:53:40;;;;;;;11.25;9.02;;;2.80;99.90;;;;;;5030939;28;20377;-83
2021/03/19 00:56:06;;;;;;;13.10;9.15;;;2.80;99.90;;;;;;5036349;28;20290;-83
2021/03/19 00:58:33;;;;;;;12.35;9.00;;;2.80;99.90;;;;;;5073010;28;20752;-83
2021/03/19 01:00:59;;;;;;;14.38;9.93;;;2.70;99.90;;;;;;5073411;28;20297;-83
2021/03/19 01:03:25;;;;;;;12.70;9.57;;;2.70;99.90;;;;;;5072030;28;20712;-83
2021/03/19 01:05:54;;;;;;;13.45;9.95;;;2.70;99.90;;;;;;5072649;28;20232;-82
2021/03/19 01:08:20;;;;;;;11.77;9.32;;;2.70;99.90;;;;;;5073136;28;20288;-82
2021/03/19 01:10:50;;;;;;;15.50;10.45;;;2.70;99.90;;;;;;5073051;28;20229;-82
2021/03/19 01:13:18;;;;;;;10.18;9.15;;;2.70;99.90;;;;;;5072549;28;20288;-81
2021/03/19 01:15:44;;;;;;;13.60;9.65;;;2.70;99.90;;;;;;5073061;28;20289;-81
2021/03/19 01:18:14;;;;;;;14.23;11.60;;;2.60;99.90;;;;;;5072950;28;20657;-81
2021/03/19 01:20:42;;;;;;;14.10;10.32;;;2.50;99.90;;;;;;5071026;28;20297;-80
2021/03/19 01:23:08;;;;;;;12.20;10.18;;;2.50;99.90;;;;;;5073490;28;20244;-81
2021/03/19 01:25:35;;;;;;;11.95;9.43;;;2.50;99.90;;;;;;5072973;28;20280;-81
2021/03/19 01:28:03;;;;;;;12.57;10.82;;;2.50;99.90;;;;;;5073065;28;20301;-81
2021/03/19 01:30:33;;;;;;;14.68;11.07;;;2.60;99.90;;;;;;5073158;28;20312;-81
2021/03/19 01:32:59;;;;;;;14.52;11.32;;;2.60;99.90;;;;;;5072610;28;20250;-81
2021/03/19 01:35:30;;;;;;;13.73;10.55;;;2.50;99.90;;;;;;5071221;28;20296;-81
2021/03/19 01:37:56;;;;;;;12.60;11.15;;;2.50;99.90;;;;;;5072621;28;20604;-81
2021/03/19 01:40:25;;;;;;;20.83;11.57;;;2.60;99.90;;;;;;5071586;28;20290;-81
2021/03/19 01:42:54;;;;;;;19.60;12.00;;;2.60;99.90;;;;;;5071130;28;20213;-81
2021/03/19 01:45:50;;;;;;;13.77;10.77;;;2.50;99.90;;;;;;5072630;28;20346;-81
2021/03/19 01:48:54;;;;;;;13.45;10.82;;;2.50;99.90;;;;;;5072448;28;20323;-81
2021/03/19 01:51:57;;;;;;;13.18;10.88;;;2.50;99.90;;;;;;5051039;28;20784;-81
2021/03/19 01:55:01;;;;;;;20.42;12.40;;;2.40;99.90;;;;;;5052418;28;20248;-82
2021/03/19 01:58:04;;;;;;;18.48;12.27;;;2.40;99.90;;;;;;5052306;28;20321;-82
2021/03/19 02:01:08;;;;;;;20.05;13.45;;;2.40;99.90;;;;;;5053866;28;20237;-82
2021/03/19 02:04:11;;;;;;;17.38;13.07;;;2.30;99.90;;;;;;5056088;28;20205;-82
2021/03/19 02:07:15;;;;;;;22.02;14.75;;;2.30;99.90;;;;;;5075208;28;20288;-83
2021/03/19 02:10:18;;;;;;;20.65;16.40;;;2.40;99.90;;;;;;5076256;28;20794;-85
2021/03/19 02:13:22;;;;;;;21.17;15.05;;;2.30;99.90;;;;;;5076134;28;20251;-82
2021/03/19 02:16:26;;;;;;;19.38;13.00;;;2.30;99.90;;;;;;5076163;28;20266;-82
2021/03/19 02:19:29;;;;;;;23.10;15.25;;;2.20;99.90;;;;;;5055955;28;20259;-82
2021/03/19 02:22:33;;;;;;;23.75;13.88;;;2.20;99.90;;;;;;5056063;28;20284;-83
2021/03/19 02:25:37;;;;;;;21.05;15.68;;;2.20;99.90;;;;;;5057152;28;20240;-83
2021/03/19 02:28:40;;;;;;;18.95;13.85;;;2.30;99.90;;;;;;5063408;28;20691;-82
2021/03/19 02:31:12;;;;;;;29.08;16.05;;;2.30;99.90;;;;;;5076577;28;20257;-82
2021/03/19 02:33:45;;;;;;;25.48;14.45;;;2.40;99.90;;;;;;5092333;28;20636;-83
2021/03/19 02:36:12;;;;;;;20.17;15.57;;;2.40;99.90;;;;;;5088583;28;20259;-82
2021/03/19 02:38:41;;;;;;;28.55;18.55;;;2.40;99.90;;;;;;5077012;28;20808;-82
2021/03/19 02:41:07;;;;;;;25.60;16.63;;;2.30;99.90;;;;;;5090748;28;20251;-82
2021/03/19 02:43:34;;;;;;;19.73;15.25;;;2.40;99.90;;;;;;5095893;28;20186;-82
2021/03/19 02:46:00;;;;;;;21.65;15.75;;;2.40;99.90;;;;;;5093557;28;20201;-82
2021/03/19 02:48:27;;;;;;;24.38;15.55;;;2.40;99.90;;;;;;5076693;28;20669;-82
2021/03/19 02:50:54;;;;;;;21.33;14.95;;;2.40;99.90;;;;;;5073635;28;20272;-82
2021/03/19 02:53:22;;;;;;;22.75;16.33;;;2.40;99.90;;;;;;5076064;28;20249;-83
2021/03/19 02:55:49;;;;;;;25.48;16.05;;;2.40;99.90;;;;;;5075621;28;20245;-82
2021/03/19 02:58:16;;;;;;;23.48;16.30;;;2.40;99.90;;;;;;5074699;28;20574;-82
2021/03/19 03:00:42;;;;;;;24.80;16.98;;;2.40;99.90;;;;;;5075317;28;20232;-81
2021/03/19 03:03:09;;;;;;;27.10;17.25;;;2.40;99.90;;;;;;5075219;28;20247;-82
2021/03/19 03:05:35;;;;;;;20.70;16.40;;;2.50;99.90;;;;;;5073377;28;20572;-83
2021/03/19 03:08:04;;;;;;;25.92;17.88;;;2.40;99.90;;;;;;5074979;28;20712;-82
2021/03/19 03:10:33;;;;;;;21.75;15.38;;;2.40;99.90;;;;;;5075081;28;20375;-82
2021/03/19 03:12:59;;;;;;;22.75;15.60;;;2.40;99.90;;;;;;5082775;28;20653;-83
2021/03/19 03:15:26;;;;;;;24.88;17.48;;;2.40;99.90;;;;;;5075391;28;20209;-82
2021/03/19 03:17:52;;;;;;;22.52;16.30;;;2.40;99.90;;;;;;5075008;28;20402;-82
2021/03/19 03:20:22;;;;;;;18.90;14.93;;;2.40;99.90;;;;;;5072785;28;20233;-82
2021/03/19 03:22:49;;;;;;;25.42;18.58;;;2.40;99.90;;;;;;5075191;28;20612;-82
2021/03/19 03:25:18;;;;;;;27.40;19.02;;;2.40;99.90;;;;;;5074817;28;20252;-83
2021/03/19 03:27:45;;;;;;;23.55;17.65;;;2.40;99.90;;;;;;5074902;28;20254;-82
2021/03/19 03:30:16;;;;;;;28.42;16.80;;;2.40;99.90;;;;;;5074716;28;20205;-82
2021/03/19 03:32:43;;;;;;;22.85;17.10;;;2.50;99.90;;;;;;5074780;28;20284;-84
2021/03/19 03:35:11;;;;;;;25.33;17.10;;;2.40;99.90;;;;;;5073235;28;20821;-83
2021/03/19 03:37:37;;;;;;;26.08;17.52;;;2.40;99.90;;;;;;5074505;28;20237;-83
2021/03/19 03:40:06;;;;;;;26.30;17.92;;;2.40;99.90;;;;;;5074656;28;20206;-82
2021/03/19 03:42:34;;;;;;;25.48;18.40;;;2.40;99.90;;;;;;5074683;28;20213;-83
2021/03/19 03:45:00;;;;;;;25.88;18.38;;;2.40;99.90;;;;;;5074473;28;20212;-82
2021/03/19 03:47:27;;;;;;;25.20;15.77;;;2.40;99.90;;;;;;5074510;28;20201;-83
2021/03/19 03:49:53;;;;;;;26.50;16.55;;;2.40;99.90;;;;;;5073162;28;20245;-82
2021/03/19 03:52:19;;;;;;;26.90;16.42;;;2.40;99.90;;;;;;5072798;28;20316;-82
2021/03/19 03:54:46;;;;;;;24.83;16.33;;;2.40;99.90;;;;;;5074210;28;20683;-83
2021/03/19 03:57:12;;;;;;;19.50;15.05;;;2.40;99.90;;;;;;5074024;28;20280;-82
2021/03/19 03:59:40;;;;;;;29.58;17.95;;;2.40;99.90;;;;;;5074280;28;20209;-83
2021/03/19 04:02:19;;;;;;;22.98;16.00;;;2.30;99.90;;;;;;5074067;28;20205;-82
2021/03/19 04:04:47;;;;;;;25.20;16.63;;;2.30;99.90;;;;;;5072909;28;20245;-83
2021/03/19 04:07:14;;;;;;;32.35;18.50;;;2.30;99.90;;;;;;5072818;28;20245;-82
2021/03/19 04:09:41;;;;;;;24.48;17.80;;;2.30;99.90;;;;;;5073886;28;20205;-82
2021/03/19 04:12:09;;;;;;;27.58;17.40;;;2.30;99.90;;;;;;5073899;28;20272;-82
2021/03/19 04:14:35;;;;;;;29.52;19.25;;;2.30;99.90;;;;;;5072881;28;20724;-83
2021/03/19 04:17:07;;;;;;;31.67;17.30;;;2.30;99.90;;;;;;5073889;28;20225;-83
2021/03/19 04:19:33;;;;;;;26.98;16.80;;;2.30;99.90;;;;;;5072418;28;20284;-83
2021/03/19 04:22:00;;;;;;;27.45;19.05;;;2.30;99.90;;;;;;5072651;28;20297;-83
2021/03/19 04:24:26;;;;;;;27.63;18.65;;;2.30;99.90;;;;;;5073070;28;20247;-82
2021/03/19 04:26:53;;;;;;;27.42;17.67;;;2.30;99.90;;;;;;5072667;28;20296;-83
2021/03/19 04:29:20;;;;;;;25.83;17.40;;;2.30;99.90;;;;;;5073807;28;20229;-82
2021/03/19 04:31:46;;;;;;;28.50;18.38;;;2.30;99.90;;;;;;5073745;28;20237;-83
2021/03/19 04:34:16;;;;;;;26.35;18.88;;;2.30;99.90;;;;;;5070858;28;20239;-83
2021/03/19 04:36:47;;;;;;;26.98;18.25;;;2.30;99.90;;;;;;5073463;28;20720;-83
2021/03/19 04:39:17;;;;;;;26.25;18.23;;;2.30;99.90;;;;;;5072809;28;20393;-82
2021/03/19 04:41:46;;;;;;;23.95;17.20;;;2.30;99.90;;;;;;5073410;28;20210;-83
2021/03/19 04:44:13;;;;;;;24.65;17.77;;;2.30;99.90;;;;;;5073341;28;20230;-82
2021/03/19 04:46:39;;;;;;;27.80;18.98;;;2.30;99.90;;;;;;5073441;28;20661;-83
2021/03/19 04:49:06;;;;;;;27.42;18.70;;;2.30;99.90;;;;;;5072488;28;20240;-83
2021/03/19 04:51:33;;;;;;;24.77;18.30;;;2.30;99.90;;;;;;5071592;28;20261;-82
2021/03/19 04:54:00;;;;;;;28.02;19.55;;;2.40;99.90;;;;;;5073061;28;20201;-82
2021/03/19 04:56:26;;;;;;;27.50;18.88;;;2.30;99.90;;;;;;5072971;28;20244;-83
2021/03/19 04:58:53;;;;;;;25.88;17.70;;;2.30;99.90;;;;;;5073203;28;20270;-82
2021/03/19 05:01:20;;;;;;;29.65;18.00;;;2.40;99.90;;;;;;5073606;28;20275;-82
2021/03/19 05:03:47;;;;;;;21.83;16.52;;;2.30;99.90;;;;;;5073177;28;20202;-83
2021/03/19 05:06:15;;;;;;;25.00;18.63;;;2.30;99.90;;;;;;5071599;28;20335;-83
2021/03/19 05:08:42;;;;;;;21.92;15.57;;;2.40;99.90;;;;;;5073263;28;20620;-83
2021/03/19 05:11:10;;;;;;;23.88;16.85;;;2.40;99.90;;;;;;5072929;28;20759;-84
2021/03/19 05:13:36;;;;;;;24.73;18.77;;;2.30;99.90;;;;;;5073081;28;20241;-83
2021/03/19 05:16:04;;;;;;;30.52;18.27;;;2.30;99.90;;;;;;5072897;28;20548;-83
2021/03/19 05:18:30;;;;;;;22.38;18.13;;;2.30;99.90;;;;;;5072569;28;20626;-83
2021/03/19 05:20:57;;;;;;;26.85;17.60;;;2.30;99.90;;;;;;5071452;28;20233;-82
2021/03/19 05:23:26;;;;;;;27.08;17.55;;;2.30;99.90;;;;;;5071980;28;20217;-83
2021/03/19 05:25:53;;;;;;;28.33;20.25;;;2.30;99.90;;;;;;5072841;28;20292;-82
2021/03/19 05:28:20;;;;;;;23.35;18.80;;;2.30;99.90;;;;;;5073267;28;20288;-82
2021/03/19 05:30:53;;;;;;;28.80;19.27;;;2.30;99.90;;;;;;5072577;28;20692;-83
2021/03/19 05:33:19;;;;;;;23.98;17.15;;;2.20;99.90;;;;;;5073333;28;20202;-83
2021/03/19 05:35:46;;;;;;;27.85;18.95;;;2.20;99.90;;;;;;5072819;28;20243;-82
2021/03/19 05:38:12;;;;;;;29.00;18.23;;;2.30;99.90;;;;;;5076966;28;20197;-83
2021/03/19 05:40:41;;;;;;;28.63;19.85;;;2.20;99.90;;;;;;5077301;28;20258;-83
2021/03/19 05:43:28;;;;;;;32.72;20.52;;;2.30;99.90;;;;;;5075819;28;20288;-83
2021/03/19 05:45:57;;;;;;;27.75;18.63;;;2.30;99.90;;;;;;5076717;28;20293;-83
2021/03/19 05:48:26;;;;;;;28.83;20.58;;;2.30;99.90;;;;;;5076899;28;20286;-83
2021/03/19 05:50:53;;;;;;;23.77;17.48;;;2.40;99.90;;;;;;5075757;28;20257;-83
2021/03/19 05:53:22;;;;;;;26.40;16.77;;;2.40;99.90;;;;;;5076748;28;20723;-85
2021/03/19 05:55:49;;;;;;;24.42;15.38;;;2.40;99.90;;;;;;5076791;28;20205;-84
2021/03/19 05:58:24;;;;;;;18.42;13.10;;;2.60;99.90;;;;;;5076038;28;20269;-83
2021/03/19 06:00:54;;;;;;;26.02;17.33;;;2.70;99.90;;;;;;5076487;28;20232;-82
2021/03/19 06:03:21;;;;;;;23.58;14.98;;;2.90;99.90;;;;;;5076493;28;20570;-83
2021/03/19 06:06:00;;;;;;;25.20;14.27;;;3.10;99.90;;;;;;5074571;28;20227;-83
2021/03/19 06:08:33;;;;;;;24.85;16.58;;;3.20;99.90;;;;;;5081380;28;20204;-83
2021/03/19 06:11:25;;;;;;;18.48;14.73;;;3.20;99.90;;;;;;5077289;28;20708;-83
2021/03/19 06:13:56;;;;;;;19.02;13.75;;;3.30;99.90;;;;;;5065926;28;20202;-83
2021/03/19 06:16:34;;;;;;;22.60;14.02;;;3.20;99.90;;;;;;5076056;28;20236;-83
2021/03/19 06:19:04;;;;;;;17.85;12.60;;;3.20;99.90;;;;;;5075699;28;20760;-83
2021/03/19 06:21:34;;;;;;;18.73;12.38;;;3.30;99.90;;;;;;5074844;28;20204;-86
2021/03/19 06:24:23;;;;;;;16.45;12.55;;;3.40;99.90;;;;;;5073665;28;20205;-82
2021/03/19 06:26:50;;;;;;;24.85;15.52;;;3.30;99.90;;;;;;5075895;28;20664;-84
2021/03/19 06:29:26;;;;;;;18.17;13.85;;;3.30;99.90;;;;;;5075308;28;20288;-84
2021/03/19 06:32:13;;;;;;;18.05;13.05;;;3.40;99.90;;;;;;5075733;28;20232;-84
2021/03/19 06:34:52;;;;;;;18.85;13.27;;;3.40;99.90;;;;;;5074416;28;20224;-83
2021/03/19 06:37:27;;;;;;;16.25;11.98;;;3.40;99.90;;;;;;5076506;28;20355;-81
2021/03/19 06:39:56;;;;;;;21.85;13.82;;;3.30;99.90;;;;;;5075833;28;20205;-83
2021/03/19 06:42:33;;;;;;;18.27;13.38;;;3.30;99.90;;;;;;5075996;28;20236;-83
2021/03/19 06:45:27;;;;;;;16.83;13.10;;;3.30;99.90;;;;;;5082914;28;20228;-81
2021/03/19 06:47:57;;;;;;;16.77;12.73;;;3.30;99.90;;;;;;5078442;28;20286;-82
2021/03/19 06:50:39;;;;;;;17.20;12.30;;;3.20;99.90;;;;;;5078293;28;20236;-85
2021/03/19 06:53:20;;;;;;;18.27;12.15;;;3.30;99.90;;;;;;5086791;28;20266;-82
2021/03/19 06:55:51;;;;;;;21.48;13.25;;;3.30;99.90;;;;;;5076018;28;20292;-84
2021/03/19 06:58:33;;;;;;;19.23;14.70;;;3.50;99.90;;;;;;5075588;28;20234;-83
2021/03/19 07:01:00;;;;;;;21.02;14.32;;;3.60;99.90;;;;;;5075834;28;20202;-84
2021/03/19 07:04:02;;;;;;;16.85;14.18;;;3.60;99.90;;;;;;5075554;28;20575;-85
2021/03/19 07:07:00;;;;;;;16.27;11.25;;;3.90;99.90;;;;;;5047220;28;20212;-86
2021/03/19 07:09:41;;;;;;;16.20;12.25;;;4.00;99.90;;;;;;5056524;28;20224;-84
2021/03/19 07:12:17;;;;;;;17.23;12.55;;;3.80;99.90;;;;;;5058110;28;20261;-83
2021/03/19 07:14:55;;;;;;;21.52;12.98;;;3.70;99.90;;;;;;5075186;28;20197;-86
2021/03/19 07:17:42;;;;;;;19.50;12.50;;;3.70;99.90;;;;;;5075443;28;20213;-84
2021/03/19 07:20:20;;;;;;;16.90;12.50;;;3.90;99.90;;;;;;5073420;28;20240;-85
2021/03/19 07:22:59;;;;;;;16.83;11.82;;;3.70;99.90;;;;;;5074714;28;20308;-87
2021/03/19 07:25:38;;;;;;;13.65;10.55;;;3.50;99.90;;;;;;5075133;28;20618;-88
2021/03/19 07:28:30;;;;;;;15.27;11.15;;;3.70;99.90;;;;;;5073877;28;20297;-86
2021/03/19 07:31:18;;;;;;;15.93;11.45;;;3.80;99.90;;;;;;5075665;28;20257;-85
2021/03/19 07:34:02;;;;;;;17.27;12.55;;;4.00;99.90;;;;;;5073999;28;20299;-86
2021/03/19 07:36:46;;;;;;;22.35;12.38;;;4.00;99.90;;;;;;5052723;28;20288;-86
2021/03/19 07:39:47;;;;;;;17.48;12.88;;;4.00;99.90;;;;;;5074580;28;20287;-86
2021/03/19 07:42:42;;;;;;;26.25;12.65;;;4.00;99.90;;;;;;5074379;28;20311;-85
2021/03/19 07:45:17;;;;;;;20.40;13.43;;;4.00;99.90;;;;;;5074192;28;20288;-84
2021/03/19 07:47:55;;;;;;;20.45;13.88;;;4.30;99.90;;;;;;5054809;28;20296;-86
2021/03/19 07:50:36;;;;;;;17.85;13.77;;;4.30;99.90;;;;;;5053138;28;20301;-82
2021/03/19 07:53:22;;;;;;;17.55;13.57;;;4.40;99.90;;;;;;5068587;28;20300;-89
2021/03/19 07:55:58;;;;;;;20.27;13.75;;;4.40;99.90;;;;;;5074655;28;20568;-90
2021/03/19 07:58:36;;;;;;;19.17;13.65;;;4.60;99.90;;;;;;5072796;28;20378;-88
2021/03/19 08:01:11;;;;;;;20.20;12.82;;;4.50;99.90;;;;;;5075093;28;20647;-90
2021/03/19 08:03:38;;;;;;;19.48;13.27;;;4.40;99.90;;;;;;5075224;28;20233;-88
2021/03/19 08:06:12;;;;;;;21.85;14.07;;;4.50;99.90;;;;;;5072078;28;20542;-85
2021/03/19 08:08:47;;;;;;;17.52;12.63;;;4.40;99.90;;;;;;5074139;28;20243;-87
2021/03/19 08:11:21;;;;;;;19.55;12.65;;;4.30;99.90;;;;;;5073871;28;20387;-89
2021/03/19 08:14:03;;;;;;;20.17;14.35;;;4.20;99.90;;;;;;5073841;28;20201;-90
2021/03/19 08:16:35;;;;;;;19.58;13.80;;;4.10;99.90;;;;;;5069434;28;20251;-89
2021/03/19 08:19:18;;;;;;;20.92;13.98;;;4.00;99.90;;;;;;5074406;28;20233;-90
2021/03/19 08:21:53;;;;;;;24.33;16.45;;;4.00;99.90;;;;;;5073029;28;20300;-88
2021/03/19 08:24:39;;;;;;;21.00;15.70;;;4.10;99.90;;;;;;5075147;28;20295;-92
2021/03/19 08:27:15;;;;;;;25.02;15.30;;;4.00;99.90;;;;;;5073218;28;20403;-89
2021/03/19 08:29:56;;;;;;;25.45;16.02;;;4.10;99.90;;;;;;5072918;28;20309;-91
2021/03/19 08:32:46;;;;;;;25.70;15.95;;;4.10;99.90;;;;;;5073604;28;20319;-90
2021/03/19 08:35:21;;;;;;;23.25;16.80;;;4.00;99.90;;;;;;5071384;28;20244;-89
2021/03/19 08:38:00;;;;;;;18.38;13.65;;;4.00;99.90;;;;;;5073758;28;20197;-89
2021/03/19 08:40:34;;;;;;;18.95;14.70;;;4.00;99.90;;;;;;5073178;28;20237;-90
2021/03/19 08:43:04;;;;;;;21.63;15.18;;;3.90;99.90;;;;;;5073328;28;20665;-89
2021/03/19 08:45:32;;;;;;;25.95;16.27;;;3.90;99.90;;;;;;5073505;28;20279;-89
2021/03/19 08:48:02;;;;;;;24.60;14.50;;;3.80;99.90;;;;;;5074354;28;20236;-89
2021/03/19 08:50:37;;;;;;;25.40;16.67;;;3.80;99.90;;;;;;5072962;28;20287;-89
2021/03/19 08:53:19;;;;;;;22.50;16.52;;;3.80;99.90;;;;;;5074769;28;20306;-88
2021/03/19 08:55:49;;;;;;;24.20;14.82;;;3.80;99.90;;;;;;5073584;28;20205;-89
2021/03/19 08:58:36;;;;;;;22.13;15.82;;;3.80;99.90;;;;;;5073439;28;20233;-88
2021/03/19 09:01:06;;;;;;;25.73;15.60;;;3.70;99.90;;;;;;5072689;28;20235;-90
2021/03/19 09:03:56;;;;;;;26.20;15.10;;;3.90;99.90;;;;;;5078840;28;20209;-88
2021/03/19 09:06:30;;;;;;;25.48;15.93;;;4.00;99.90;;;;;;5072349;28;20292;-86
2021/03/19 09:09:20;;;;;;;27.77;16.77;;;4.30;99.90;;;;;;5073357;28;20229;-87
2021/03/19 09:12:10;;;;;;;25.40;15.65;;;4.30;99.90;;;;;;5072570;28;20333;-87
2021/03/19 09:15:08;;;;;;;36.45;17.02;;;4.40;99.90;;;;;;5072478;28;20233;-87
2021/03/19 09:17:51;;;;;;;17.25;12.60;;;4.50;99.90;;;;;;5055537;28;20208;-88
2021/03/19 09:20:31;;;;;;;16.88;12.60;;;4.50;99.90;;;;;;5071172;28;20682;-83
2021/03/19 09:23:18;;;;;;;23.23;14.60;;;4.50;99.90;;;;;;5073215;28;20305;-93
2021/03/19 09:25:46;;;;;;;16.05;10.63;;;4.60;99.90;;;;;;5072888;28;20229;-88
2021/03/19 09:28:23;;;;;;;20.45;12.10;;;4.70;99.90;;;;;;5054655;28;20634;-86
2021/03/19 09:30:52;;;;;;;17.05;11.38;;;4.70;99.90;;;;;;5073199;28;20617;-85
2021/03/19 09:33:55;;;;;;;18.70;11.00;;;4.80;99.90;;;;;;5074632;28;20443;-91
2021/03/19 09:36:51;;;;;;;17.20;11.23;;;4.80;99.90;;;;;;5070705;28;20243;-88
2021/03/19 09:39:55;;;;;;;14.15;9.05;;;4.80;99.90;;;;;;5073691;28;20253;-90
2021/03/19 09:42:45;;;;;;;14.75;8.85;;;4.60;99.90;;;;;;5074794;28;20212;-90
2021/03/19 09:45:19;;;;;;;12.77;9.02;;;4.50;99.90;;;;;;5074174;28;20691;-91
2021/03/19 09:47:48;;;;;;;13.32;10.18;;;4.60;99.90;;;;;;5077523;28;20817;-83
2021/03/19 09:50:19;;;;;;;12.30;9.20;;;4.70;99.90;;;;;;5071735;28;20240;-91
2021/03/19 09:52:57;;;;;;;15.15;9.68;;;4.70;99.90;;;;;;5072866;28;20316;-84
2021/03/19 09:55:26;;;;;;;17.38;11.13;;;4.70;99.90;;;;;;5072188;28;20708;-87
2021/03/19 09:57:53;;;;;;;9.88;8.85;;;5.00;99.90;;;;;;5073062;28;20268;-89
2021/03/19 10:00:27;;;;;;;13.07;8.25;;;5.20;99.90;;;;;;5073050;28;20295;-88
2021/03/19 10:02:53;;;;;;;11.85;8.57;;;5.30;99.90;;;;;;5072830;28;20218;-85
2021/03/19 10:05:24;;;;;;;12.00;7.55;;;5.50;99.90;;;;;;5069903;28;20737;-85
2021/03/19 10:07:53;;;;;;;13.18;9.43;;;5.80;99.90;;;;;;5072805;28;20202;-88
2021/03/19 10:10:29;;;;;;;14.35;9.30;;;5.90;99.90;;;;;;5072282;28;20309;-89
2021/03/19 10:13:08;;;;;;;11.30;7.90;;;5.90;99.90;;;;;;5072300;28;20734;-90
2021/03/19 10:15:36;;;;;;;14.27;8.70;;;5.80;99.90;;;;;;5071596;28;20292;-86
2021/03/19 10:18:06;;;;;;;11.02;7.95;;;5.90;99.90;;;;;;5072090;28;20307;-84
2021/03/19 10:20:38;;;;;;;11.23;7.18;;;5.80;99.90;;;;;;5071138;28;20305;-87
2021/03/19 10:23:14;;;;;;;14.27;7.38;;;5.70;99.90;;;;;;5076011;28;20296;-88
2021/03/19 10:25:42;;;;;;;10.25;6.97;;;5.40;99.90;;;;;;5076328;28;20241;-82
2021/03/19 10:28:22;;;;;;;9.13;6.78;;;5.10;99.90;;;;;;5074820;28;20740;-87
2021/03/19 10:30:52;;;;;;;8.88;6.95;;;4.90;99.90;;;;;;5050930;28;20728;-88
2021/03/19 10:33:22;;;;;;;10.00;6.93;;;4.70;99.90;;;;;;5052763;28;20211;-86
2021/03/19 10:35:52;;;;;;;9.52;6.88;;;4.50;99.90;;;;;;5052373;28;20206;-86
2021/03/19 10:38:33;;;;;;;12.85;8.63;;;4.30;99.90;;;;;;5052900;28;20276;-90
2021/03/19 10:41:02;;;;;;;15.98;8.38;;;4.20;99.90;;;;;;5054525;28;20292;-88
2021/03/19 10:43:35;;;;;;;8.07;6.60;;;4.40;99.90;;;;;;5054484;28;20293;-88
2021/03/19 10:46:09;;;;;;;10.60;7.72;;;4.30;99.90;;;;;;5054857;28;20198;-88
2021/03/19 10:48:43;;;;;;;11.57;7.60;;;4.40;99.90;;;;;;5064295;28;20301;-90
2021/03/19 10:51:24;;;;;;;9.80;6.38;;;4.60;99.90;;;;;;5056932;28;20233;-89
2021/03/19 10:53:58;;;;;;;6.82;5.22;;;4.70;99.90;;;;;;5090502;28;20205;-87
2021/03/19 10:56:26;;;;;;;4.93;3.70;;;4.60;99.90;;;;;;5093016;28;20247;-80
2021/03/19 10:59:07;;;;;;;6.88;5.32;;;4.50;99.90;;;;;;5082261;28;20243;-83
2021/03/19 11:01:38;;;;;;;3.63;2.78;;;4.50;99.90;;;;;;5088434;28;20213;-84
2021/03/19 11:04:25;;;;;;;6.13;4.20;;;4.30;99.90;;;;;;5092794;28;20722;-79
2021/03/19 11:06:53;;;;;;;6.30;4.88;;;4.10;99.90;;;;;;5096183;28;20255;-84
2021/03/19 11:09:25;;;;;;;4.38;3.03;;;4.00;99.90;;;;;;5056635;28;20649;-85
2021/03/19 11:11:56;;;;;;;5.50;4.28;;;4.10;99.90;;;;;;5077676;28;20225;-83
2021/03/19 11:14:26;;;;;;;5.78;4.30;;;4.20;99.90;;;;;;5075650;28;20205;-84
2021/03/19 11:16:56;;;;;;;6.65;4.22;;;4.20;99.90;;;;;;5074306;28;20266;-84
2021/03/19 11:19:24;;;;;;;8.80;3.83;;;4.40;99.90;;;;;;5074343;28;20650;-80
2021/03/19 11:22:02;;;;;;;5.07;3.72;;;4.60;99.90;;;;;;5075473;28;20240;-80
2021/03/19 11:24:31;;;;;;;6.20;4.38;;;4.50;99.90;;;;;;5074020;28;20343;-81
2021/03/19 11:27:02;;;;;;;7.50;3.95;;;4.60;99.90;;;;;;5075163;28;20342;-87
2021/03/19 11:29:34;;;;;;;6.57;4.93;;;4.40;99.90;;;;;;5074933;28;20213;-82
2021/03/19 11:32:08;;;;;;;6.57;4.93;;;4.50;99.90;;;;;;5074464;28;20233;-83
2021/03/19 11:34:39;;;;;;;7.65;5.30;;;4.60;99.90;;;;;;5072573;28;20233;-80
2021/03/19 11:37:10;;;;;;;7.78;5.70;;;4.60;99.90;;;;;;5074758;28;20198;-80
2021/03/19 11:39:44;;;;;;;5.95;4.07;;;4.80;99.90;;;;;;5073622;28;20241;-82
2021/03/19 11:42:13;;;;;;;5.15;4.20;;;4.90;99.90;;;;;;5073541;28;20285;-87
2021/03/19 11:44:40;;;;;;;7.22;5.15;;;4.90;99.90;;;;;;5075189;28;20683;-83
2021/03/19 11:47:15;;;;;;;11.57;6.07;;;5.00;99.90;;;;;;5075060;28;20206;-89
2021/03/19 11:49:42;;;;;;;7.85;5.35;;;5.10;99.90;;;;;;5073555;28;20201;-88
2021/03/19 11:52:11;;;;;;;10.85;6.55;;;5.20;99.90;;;;;;5074372;28;20269;-87
2021/03/19 11:54:37;;;;;;;9.68;6.78;;;5.50;99.90;;;;;;5076383;28;20313;-88
2021/03/19 11:57:05;;;;;;;8.68;5.95;;;5.90;99.90;;;;;;5073582;28;20271;-83
2021/03/19 11:59:31;;;;;;;9.13;6.63;;;6.30;99.90;;;;;;5076819;28;20246;-88
2021/03/19 12:01:59;;;;;;;6.50;5.03;;;6.60;99.90;;;;;;5075946;28;20248;-89
2021/03/19 12:04:26;;;;;;;10.57;6.85;;;6.50;99.90;;;;;;5074795;28;20201;-86
2021/03/19 12:06:53;;;;;;;7.82;6.07;;;6.50;99.90;;;;;;5062421;28;20229;-87
2021/03/19 12:09:19;;;;;;;13.82;8.55;;;6.20;99.90;;;;;;5059830;28;20735;-88
2021/03/19 12:11:46;;;;;;;8.60;6.18;;;6.10;99.90;;;;;;5055105;28;20222;-86
2021/03/19 12:14:21;;;;;;;10.50;7.50;;;6.20;99.90;;;;;;5054582;28;20202;-89
2021/03/19 12:16:48;;;;;;;7.00;6.30;;;5.70;99.90;;;;;;5054095;28;20241;-87
2021/03/19 12:19:15;;;;;;;11.43;7.95;;;5.70;99.90;;;;;;5071627;28;20653;-88
2021/03/19 12:21:42;;;;;;;11.00;6.20;;;5.70;99.90;;;;;;5074084;28;20205;-85
2021/03/19 12:24:10;;;;;;;9.75;7.28;;;5.90;99.90;;;;;;5073959;28;20237;-90
2021/03/19 12:26:36;;;;;;;10.50;6.53;;;6.50;99.90;;;;;;5077835;28;20657;-88
2021/03/19 12:29:03;;;;;;;11.25;6.95;;;6.50;99.90;;;;;;5077659;28;20230;-81
2021/03/19 12:31:30;;;;;;;11.10;6.65;;;6.40;99.90;;;;;;5079616;28;20291;-90
2021/03/19 12:33:57;;;;;;;11.43;7.25;;;6.50;99.90;;;;;;5075898;28;20201;-87
2021/03/19 12:36:23;;;;;;;11.98;8.25;;;6.00;99.90;;;;;;5076309;28;20233;-88
2021/03/19 12:38:51;;;;;;;12.13;7.18;;;5.80;99.90;;;;;;5080790;28;20205;-81
2021/03/19 12:41:19;;;;;;;14.80;9.55;;;5.70;99.90;;;;;;5079616;28;20308;-89
2021/03/19 12:43:45;;;;;;;13.55;8.27;;;5.70;99.90;;;;;;5076958;28;20237;-84
2021/03/19 12:46:13;;;;;;;13.95;9.27;;;5.50;99.90;;;;;;5074237;28;20224;-81
2021/03/19 12:48:40;;;;;;;13.02;8.85;;;5.40;99.90;;;;;;5074388;28;20201;-85
2021/03/19 12:51:07;;;;;;;15.60;9.50;;;5.30;99.90;;;;;;5073109;28;20633;-86
2021/03/19 12:53:34;;;;;;;15.98;8.25;;;5.20;99.90;;;;;;5008001;28;20229;-82
2021/03/19 12:56:03;;;;;;;16.08;9.95;;;4.90;99.90;;;;;;5076330;28;20209;-90
2021/03/19 12:58:30;;;;;;;15.25;9.27;;;4.80;99.90;;;;;;5075301;28;20248;-85
2021/03/19 13:00:57;;;;;;;20.75;9.80;;;4.70;99.90;;;;;;5074638;28;20259;-83
2021/03/19 13:03:25;;;;;;;14.00;8.52;;;4.70;99.90;;;;;;5074341;28;20233;-88
2021/03/19 13:05:52;;;;;;;13.75;7.75;;;4.70;99.90;;;;;;5073589;28;20297;-86
2021/03/19 13:08:18;;;;;;;14.52;10.52;;;4.60;99.90;;;;;;5079393;28;20229;-87
2021/03/19 13:10:45;;;;;;;10.43;6.80;;;4.40;99.90;;;;;;5078999;28;20244;-89
2021/03/19 13:13:12;;;;;;;12.55;8.52;;;4.60;99.90;;;;;;5078962;28;20287;-84